createdAt,value
2023-01-19T00:01:29.352Z,-4.03
2023-01-19T00:03:58.071Z,-4.03
2023-01-19T00:06:26.262Z,-3.99
2023-01-19T00:08:54.384Z,-4.05
2023-01-19T00:11:22.782Z,-4.11
2023-01-19T00:13:53.679Z,-4.13
2023-01-19T00:16:23.257Z,-4.11
2023-01-19T00:18:51.946Z,-4.01
2023-01-19T00:21:19.993Z,-3.99
2023-01-19T00:23:48.528Z,-3.96
2023-01-19T00:26:17.342Z,-3.96
2023-01-19T00:28:45.581Z,-3.92
2023-01-19T00:31:15.055Z,-3.91
2023-01-19T00:33:43.166Z,-3.86
2023-01-19T00:36:11.730Z,-3.89
2023-01-19T00:38:40.173Z,-3.99
2023-01-19T00:41:08.181Z,-4.06
2023-01-19T00:43:35.230Z,-4.00
2023-01-19T00:46:03.312Z,-4.03
2023-01-19T00:48:32.830Z,-4.04
2023-01-19T00:51:01.188Z,-4.08
2023-01-19T00:53:32.591Z,-4.04
2023-01-19T00:56:00.704Z,-4.00
2023-01-19T00:58:28.801Z,-3.93
2023-01-19T01:00:57.922Z,-3.91
2023-01-19T01:03:28.255Z,-3.99
2023-01-19T01:05:58.142Z,-3.98
2023-01-19T01:08:26.315Z,-3.97
2023-01-19T01:10:54.352Z,-3.99
2023-01-19T01:13:24.231Z,-4.03
2023-01-19T01:15:54.599Z,-4.00
2023-01-19T01:18:22.792Z,-3.99
2023-01-19T01:20:51.153Z,-3.98
2023-01-19T01:23:22.769Z,-4.03
2023-01-19T01:25:50.953Z,-4.09
2023-01-19T01:28:19.060Z,-4.13
2023-01-19T01:30:47.155Z,-4.15
2023-01-19T01:33:15.608Z,-4.09
2023-01-19T01:36:03.636Z,-4.11
2023-01-19T01:38:33.087Z,-4.18
2023-01-19T01:41:01.146Z,-4.28
2023-01-19T01:43:45.574Z,-4.33
2023-01-19T01:46:15.535Z,-4.34
2023-01-19T01:48:45.844Z,-4.29
2023-01-19T01:51:27.997Z,-4.26
2023-01-19T01:54:10.102Z,-4.31
2023-01-19T01:56:40.221Z,-4.29
2023-01-19T01:59:09.475Z,-4.23
2023-01-19T02:01:55.148Z,-4.26
2023-01-19T02:04:23.743Z,-4.39
2023-01-19T02:07:08.977Z,-4.42
2023-01-19T02:09:56.513Z,-4.48
2023-01-19T02:12:42.231Z,-4.49
2023-01-19T02:15:17.037Z,-4.50
2023-01-19T02:17:45.111Z,-4.55
2023-01-19T02:20:13.484Z,-4.59
2023-01-19T02:22:45.753Z,-4.63
2023-01-19T02:25:15.183Z,-4.70
2023-01-19T02:27:43.664Z,-4.79
2023-01-19T02:30:12.641Z,-4.80
2023-01-19T02:32:40.697Z,-4.82
2023-01-19T02:35:09.175Z,-4.90
2023-01-19T02:37:40.163Z,-5.00
2023-01-19T02:40:10.530Z,-5.09
2023-01-19T02:42:41.029Z,-5.07
2023-01-19T02:45:12.740Z,-5.03
2023-01-19T02:47:41.169Z,-4.99
2023-01-19T02:50:37.010Z,-4.98
2023-01-19T02:53:10.334Z,-4.91
2023-01-19T02:55:38.658Z,-4.88
2023-01-19T02:58:09.086Z,-4.88
2023-01-19T03:00:40.067Z,-4.86
2023-01-19T03:03:16.577Z,-4.95
2023-01-19T03:05:54.879Z,-5.02
2023-01-19T03:08:29.577Z,-5.02
2023-01-19T03:11:01.218Z,-4.90
2023-01-19T03:13:32.678Z,-4.88
2023-01-19T03:16:01.973Z,-4.91
2023-01-19T03:18:30.470Z,-4.93
2023-01-19T03:20:59.730Z,-4.80
2023-01-19T03:23:29.212Z,-4.72
2023-01-19T03:25:57.575Z,-4.64
2023-01-19T03:28:25.671Z,-4.61
2023-01-19T03:30:57.258Z,-4.56
2023-01-19T03:33:27.479Z,-4.53
2023-01-19T03:35:58.513Z,-4.51
2023-01-19T03:38:26.940Z,-4.45
2023-01-19T03:40:55.282Z,-4.45
2023-01-19T03:43:23.602Z,-4.40
2023-01-19T03:45:51.628Z,-4.44
2023-01-19T03:48:21.483Z,-4.45
2023-01-19T03:50:49.539Z,-4.35
2023-01-19T03:53:17.986Z,-4.31
2023-01-19T03:55:47.335Z,-4.25
2023-01-19T03:58:15.585Z,-4.23
2023-01-19T04:00:43.659Z,-4.19
2023-01-19T04:03:13.588Z,-4.17
2023-01-19T04:05:43.337Z,-4.16
2023-01-19T04:08:11.960Z,-4.18
2023-01-19T04:10:40.066Z,-4.14
2023-01-19T04:13:08.155Z,-4.15
2023-01-19T04:15:36.261Z,-4.24
2023-01-19T04:18:05.444Z,-4.25
2023-01-19T04:20:33.892Z,-4.24
2023-01-19T04:23:03.754Z,-4.24
2023-01-19T04:25:31.969Z,-4.31
2023-01-19T04:28:00.301Z,-4.33
2023-01-19T04:30:28.566Z,-4.36
2023-01-19T04:32:57.015Z,-4.32
2023-01-19T04:35:25.089Z,-4.32
2023-01-19T04:37:53.124Z,-4.28
2023-01-19T04:40:22.563Z,-4.18
2023-01-19T04:42:51.010Z,-4.17
2023-01-19T04:45:19.342Z,-4.09
2023-01-19T04:47:47.415Z,-4.11
2023-01-19T04:50:15.503Z,-4.18
2023-01-19T04:52:43.560Z,-4.23
2023-01-19T04:55:12.014Z,-4.20
2023-01-19T04:57:41.570Z,-4.27
2023-01-19T05:00:11.119Z,-4.26
2023-01-19T05:02:39.242Z,-4.24
2023-01-19T05:05:07.641Z,-4.19
2023-01-19T05:07:35.905Z,-4.14
2023-01-19T05:10:04.051Z,-4.11
2023-01-19T05:12:32.437Z,-4.10
2023-01-19T05:15:02.821Z,-4.16
2023-01-19T05:17:30.989Z,-4.16
2023-01-19T05:19:59.024Z,-4.12
2023-01-19T05:22:27.062Z,-4.13
2023-01-19T05:24:55.111Z,-4.15
2023-01-19T05:27:23.463Z,-4.16
2023-01-19T05:29:52.102Z,-4.20
2023-01-19T05:32:21.553Z,-4.26
2023-01-19T05:34:49.631Z,-4.34
2023-01-19T05:37:17.787Z,-4.40
2023-01-19T05:39:46.161Z,-4.46
2023-01-19T05:42:14.178Z,-4.45
2023-01-19T05:44:42.256Z,-4.43
2023-01-19T05:47:10.354Z,-4.35
2023-01-19T05:49:39.755Z,-4.30
2023-01-19T05:52:08.142Z,-4.25
2023-01-19T05:54:36.228Z,-4.21
2023-01-19T05:57:04.903Z,-4.16
2023-01-19T05:59:32.960Z,-4.13
2023-01-19T06:02:01.158Z,-4.13
2023-01-19T06:04:29.196Z,-4.14
2023-01-19T06:06:59.024Z,-4.09
2023-01-19T06:09:27.087Z,-4.06
2023-01-19T06:11:56.634Z,-4.15
2023-01-19T06:14:25.167Z,-4.23
2023-01-19T06:16:53.224Z,-4.23
2023-01-19T06:19:21.299Z,-4.22
2023-01-19T06:21:52.378Z,-4.20
2023-01-19T06:24:23.155Z,-4.11
2023-01-19T06:26:51.263Z,-4.09
2023-01-19T06:29:19.307Z,-4.08
2023-01-19T06:31:47.407Z,-4.04
2023-01-19T06:34:15.779Z,-4.05
2023-01-19T06:36:43.850Z,-4.06
2023-01-19T06:39:12.066Z,-4.00
2023-01-19T06:41:41.547Z,-3.98
2023-01-19T06:44:09.587Z,-3.93
2023-01-19T06:46:38.020Z,-3.90
2023-01-19T06:49:06.157Z,-3.90
2023-01-19T06:51:34.262Z,-3.86
2023-01-19T06:54:02.570Z,-3.85
2023-01-19T06:56:30.661Z,-3.84
2023-01-19T06:59:00.482Z,-3.82
2023-01-19T07:01:28.919Z,-3.84
2023-01-19T07:03:57.257Z,-3.83
2023-01-19T07:06:25.331Z,-3.85
2023-01-19T07:08:53.380Z,-3.84
2023-01-19T07:11:29.463Z,-3.76
2023-01-19T07:14:03.456Z,-3.71
2023-01-19T07:16:31.891Z,-3.65
2023-01-19T07:18:59.969Z,-3.63
2023-01-19T07:21:29.330Z,-3.62
2023-01-19T07:23:57.891Z,-3.59
2023-01-19T07:26:27.963Z,-3.59
2023-01-19T07:28:56.316Z,-3.55
2023-01-19T07:31:25.927Z,-3.51
2023-01-19T07:33:54.041Z,-3.45
2023-01-19T07:36:22.059Z,-3.42
2023-01-19T07:42:36.967Z,-3.37
2023-01-19T07:45:06.017Z,-3.32
2023-01-19T07:47:35.546Z,-3.29
2023-01-19T07:50:03.664Z,-3.30
2023-01-19T07:52:31.819Z,-3.29
2023-01-19T07:55:00.046Z,-3.27
2023-01-19T07:57:28.628Z,-3.28
2023-01-19T07:59:56.949Z,-3.28
2023-01-19T08:02:25.652Z,-3.27
2023-01-19T08:04:55.382Z,-3.22
2023-01-19T08:07:23.512Z,-3.21
2023-01-19T08:09:51.634Z,-3.18
2023-01-19T08:12:20.056Z,-3.16
2023-01-19T08:14:48.354Z,-3.15
2023-01-19T08:17:17.168Z,-3.13
2023-01-19T08:19:45.317Z,-3.13
2023-01-19T08:22:14.867Z,-3.04
2023-01-19T08:24:43.307Z,-3.03
2023-01-19T08:27:14.086Z,-3.07
2023-01-19T08:29:42.160Z,-3.08
2023-01-19T08:32:10.354Z,-3.08
2023-01-19T08:34:38.539Z,-3.03
2023-01-19T08:37:06.683Z,-2.97
2023-01-19T08:39:36.486Z,-2.96
2023-01-19T08:42:05.832Z,-2.94
2023-01-19T08:44:34.026Z,-2.90
2023-01-19T08:47:02.251Z,-2.83
2023-01-19T08:49:30.530Z,-2.76
2023-01-19T08:51:58.630Z,-2.72
2023-01-19T08:54:26.721Z,-2.66
2023-01-19T08:56:56.440Z,-2.62
2023-01-19T08:59:24.526Z,-2.64
2023-01-19T09:01:52.771Z,-2.51
2023-01-19T09:04:20.935Z,-2.45
2023-01-19T09:06:49.381Z,-2.35
2023-01-19T09:09:17.538Z,-2.33
2023-01-19T09:11:45.666Z,-2.33
2023-01-19T09:14:15.233Z,-2.39
2023-01-19T09:16:43.447Z,-2.30
2023-01-19T09:19:11.893Z,-2.35
2023-01-19T09:21:39.989Z,-2.28
2023-01-19T09:24:09.324Z,-2.25
2023-01-19T09:26:39.254Z,-2.21
2023-01-19T09:29:07.332Z,-2.09
2023-01-19T09:31:36.859Z,-1.92
2023-01-19T09:34:05.291Z,-1.78
2023-01-19T09:36:33.544Z,-1.93
2023-01-19T09:39:01.668Z,-2.01
2023-01-19T09:41:29.811Z,-2.04
2023-01-19T09:43:58.389Z,-2.00
2023-01-19T09:46:28.986Z,-2.10
2023-01-19T09:48:59.418Z,-2.07
2023-01-19T09:51:28.232Z,-2.08
2023-01-19T09:53:58.913Z,-2.13
2023-01-19T09:56:27.759Z,-2.08
2023-01-19T09:58:55.902Z,-1.99
2023-01-19T10:01:44.828Z,-1.92
2023-01-19T10:04:29.754Z,-1.90
2023-01-19T10:07:06.670Z,-1.80
2023-01-19T10:09:37.177Z,-1.69
2023-01-19T10:12:08.965Z,-1.65
2023-01-19T10:14:41.142Z,-1.72
2023-01-19T10:17:15.441Z,-1.65
2023-01-19T10:19:46.817Z,-1.67
2023-01-19T10:22:20.639Z,-1.71
2023-01-19T10:24:48.777Z,-1.71
2023-01-19T10:27:21.823Z,-1.77
2023-01-19T10:29:49.946Z,-1.71
2023-01-19T10:32:20.054Z,-1.73
2023-01-19T10:34:49.759Z,-1.70
2023-01-19T10:37:20.921Z,-1.71
2023-01-19T10:39:53.721Z,-1.64
2023-01-19T10:42:22.357Z,-1.66
2023-01-19T10:44:50.715Z,-1.66
2023-01-19T10:47:20.035Z,-1.62
2023-01-19T10:49:49.661Z,-1.49
2023-01-19T10:52:22.829Z,-1.47
2023-01-19T10:54:51.256Z,-1.45
2023-01-19T10:57:24.901Z,-1.42
2023-01-19T10:59:53.085Z,-1.45
2023-01-19T11:02:22.337Z,-1.43
2023-01-19T11:04:53.190Z,-1.43
2023-01-19T11:07:22.674Z,-1.36
2023-01-19T11:09:50.882Z,-1.31
2023-01-19T11:12:20.193Z,-1.28
2023-01-19T11:14:48.828Z,-1.23
2023-01-19T11:17:20.170Z,-1.24
2023-01-19T11:19:59.066Z,-1.13
2023-01-19T11:22:29.452Z,-1.12
2023-01-19T11:25:01.179Z,-1.10
2023-01-19T11:27:29.246Z,-1.03
2023-01-19T11:30:05.307Z,-1.15
2023-01-19T11:32:36.953Z,-1.13
2023-01-19T11:35:34.834Z,-1.21
2023-01-19T11:38:15.976Z,-1.27
2023-01-19T11:40:44.132Z,-1.30
2023-01-19T11:43:12.596Z,-1.30
2023-01-19T11:45:40.710Z,-1.34
2023-01-19T11:48:08.789Z,-1.39
2023-01-19T11:50:41.771Z,-1.41
2023-01-19T11:53:13.128Z,-1.47
2023-01-19T11:55:42.937Z,-1.46
2023-01-19T11:58:11.658Z,-1.41
2023-01-19T12:00:41.431Z,-1.44
2023-01-19T12:03:13.545Z,-1.50
2023-01-19T12:05:45.292Z,-1.57
2023-01-19T12:08:17.018Z,-1.55
2023-01-19T12:10:45.938Z,-1.46
2023-01-19T12:13:20.974Z,-1.48
2023-01-19T12:15:49.165Z,-1.53
2023-01-19T12:18:19.776Z,-1.49
2023-01-19T12:20:50.751Z,-1.44
2023-01-19T12:23:26.825Z,-1.52
2023-01-19T12:26:02.634Z,-1.61
2023-01-19T12:28:31.551Z,-1.55
2023-01-19T12:31:00.181Z,-1.58
2023-01-19T12:33:35.989Z,-1.63
2023-01-19T12:36:07.080Z,-1.61
2023-01-19T12:38:37.460Z,-1.69
2023-01-19T12:41:23.997Z,-1.66
2023-01-19T12:44:23.260Z,-1.62
2023-01-19T12:46:54.528Z,-1.66
2023-01-19T12:49:26.268Z,-1.71
2023-01-19T12:51:57.303Z,-1.69
2023-01-19T12:54:28.650Z,-1.73
2023-01-19T12:57:00.536Z,-1.74
2023-01-19T12:59:29.135Z,-1.72
2023-01-19T13:02:30.496Z,-1.70
2023-01-19T13:05:23.517Z,-1.71
2023-01-19T13:08:21.290Z,-1.76
2023-01-19T13:11:13.967Z,-1.76
2023-01-19T13:13:42.366Z,-1.75
2023-01-19T13:16:51.722Z,-1.71
2023-01-19T13:19:19.915Z,-1.68
2023-01-19T13:21:48.596Z,-1.65
2023-01-19T13:24:18.655Z,-1.68
2023-01-19T13:26:55.356Z,-1.61
2023-01-19T13:29:26.320Z,-1.66
2023-01-19T13:31:56.242Z,-1.70
2023-01-19T13:34:25.532Z,-1.69
2023-01-19T13:36:54.243Z,-1.68
2023-01-19T13:39:33.256Z,-1.65
2023-01-19T13:42:02.779Z,-1.67
2023-01-19T13:44:31.817Z,-1.63
2023-01-19T13:46:59.992Z,-1.58
2023-01-19T13:49:29.774Z,-1.57
2023-01-19T13:52:08.450Z,-1.59
2023-01-19T13:54:37.982Z,-1.60
2023-01-19T13:57:06.096Z,-1.61
2023-01-19T13:59:34.461Z,-1.64
2023-01-19T14:02:05.831Z,-1.63
2023-01-19T14:04:34.617Z,-1.64
2023-01-19T14:07:04.002Z,-1.63
2023-01-19T14:09:32.193Z,-1.57
2023-01-19T14:12:09.981Z,-1.54
2023-01-19T14:14:38.209Z,-1.54
2023-01-19T14:17:06.304Z,-1.51
2023-01-19T14:19:49.255Z,-1.55
2023-01-19T14:22:17.446Z,-1.54
2023-01-19T14:24:45.602Z,-1.53
2023-01-19T14:27:25.284Z,-1.57
2023-01-19T14:29:54.859Z,-1.58
2023-01-19T14:32:23.766Z,-1.57
2023-01-19T14:34:53.771Z,-1.57
2023-01-19T14:37:23.826Z,-1.57
2023-01-19T14:39:52.830Z,-1.62
2023-01-19T14:42:25.095Z,-1.60
2023-01-19T14:44:53.728Z,-1.66
2023-01-19T14:47:30.553Z,-1.64
2023-01-19T14:50:01.552Z,-1.58
2023-01-19T14:52:31.734Z,-1.56
2023-01-19T14:54:59.859Z,-1.58
2023-01-19T14:57:29.419Z,-1.60
2023-01-19T14:59:57.575Z,-1.61
2023-01-19T15:02:26.069Z,-1.66
2023-01-19T15:04:57.859Z,-1.72
2023-01-19T15:07:26.177Z,-1.70
2023-01-19T15:09:54.373Z,-1.70
2023-01-19T15:12:24.083Z,-1.67
2023-01-19T15:14:53.684Z,-1.68
2023-01-19T15:17:25.649Z,-1.69
2023-01-19T15:19:55.395Z,-1.66
2023-01-19T15:22:23.645Z,-1.68
2023-01-19T15:24:52.402Z,-1.67
2023-01-19T15:27:21.711Z,-1.71
2023-01-19T15:29:50.147Z,-1.72
2023-01-19T15:32:19.621Z,-1.73
2023-01-19T15:34:48.045Z,-1.71
2023-01-19T15:37:16.520Z,-1.71
2023-01-19T15:39:44.595Z,-1.71
2023-01-19T15:42:13.587Z,-1.75
2023-01-19T15:44:41.993Z,-1.75
2023-01-19T15:47:10.507Z,-1.78
2023-01-19T15:49:40.092Z,-1.78
2023-01-19T15:52:08.211Z,-1.75
2023-01-19T15:54:36.349Z,-1.74
2023-01-19T15:57:04.887Z,-1.73
2023-01-19T15:59:33.012Z,-1.75
2023-01-19T16:02:01.252Z,-1.75
2023-01-19T16:04:29.496Z,-1.76
2023-01-19T16:06:59.030Z,-1.77
2023-01-19T16:09:27.134Z,-1.78
2023-01-19T16:11:57.150Z,-1.82
2023-01-19T16:14:25.268Z,-1.84
2023-01-19T16:16:53.379Z,-1.79
2023-01-19T16:19:21.516Z,-1.76
2023-01-19T16:21:49.660Z,-1.76
2023-01-19T16:24:19.492Z,-1.79
2023-01-19T16:26:47.689Z,-1.79
2023-01-19T16:29:15.866Z,-1.77
2023-01-19T16:31:45.530Z,-1.75
2023-01-19T16:34:13.808Z,-1.74
2023-01-19T16:36:42.311Z,-1.71
2023-01-19T16:39:12.177Z,-1.72
2023-01-19T16:41:41.796Z,-1.69
2023-01-19T16:44:11.099Z,-1.71
2023-01-19T16:46:40.547Z,-1.71
2023-01-19T16:49:12.022Z,-1.68
2023-01-19T16:51:40.172Z,-1.68
2023-01-19T16:54:08.287Z,-1.66
2023-01-19T16:56:36.491Z,-1.66
2023-01-19T16:59:06.047Z,-1.69
2023-01-19T17:01:34.375Z,-1.70
2023-01-19T17:04:03.136Z,-1.69
2023-01-19T17:06:31.756Z,-1.68
2023-01-19T17:09:00.216Z,-1.68
2023-01-19T17:11:29.196Z,-1.67
2023-01-19T17:13:57.928Z,-1.68
2023-01-19T17:16:28.190Z,-1.69
2023-01-19T17:18:57.661Z,-1.71
2023-01-19T17:21:25.783Z,-1.71
2023-01-19T17:23:54.651Z,-1.75
2023-01-19T17:26:22.952Z,-1.78
2023-01-19T17:28:51.064Z,-1.79
2023-01-19T17:31:20.709Z,-1.79
2023-01-19T17:33:50.933Z,-1.82
2023-01-19T17:36:22.361Z,-1.83
2023-01-19T17:38:50.833Z,-1.82
2023-01-19T17:41:20.151Z,-1.84
2023-01-19T17:43:50.436Z,-1.81
2023-01-19T17:46:18.679Z,-1.78
2023-01-19T17:48:53.374Z,-1.76
2023-01-19T17:51:22.954Z,-1.76
2023-01-19T17:53:51.416Z,-1.72
2023-01-19T17:56:21.628Z,-1.71
2023-01-19T17:58:49.931Z,-1.71
2023-01-19T18:01:19.604Z,-1.69
2023-01-19T18:03:47.890Z,-1.69
2023-01-19T18:06:17.469Z,-1.67
2023-01-19T18:08:47.307Z,-1.64
2023-01-19T18:11:15.747Z,-1.66
2023-01-19T18:13:45.174Z,-1.62
2023-01-19T18:16:14.912Z,-1.61
2023-01-19T18:18:44.134Z,-1.58
2023-01-19T18:21:13.066Z,-1.58
2023-01-19T18:23:43.372Z,-1.56
2023-01-19T18:26:12.871Z,-1.58
2023-01-19T18:28:41.468Z,-1.59
2023-01-19T18:31:09.878Z,-1.56
2023-01-19T18:33:38.168Z,-1.56
2023-01-19T18:36:06.960Z,-1.56
2023-01-19T18:38:35.124Z,-1.55
2023-01-19T18:41:05.761Z,-1.56
2023-01-19T18:43:33.949Z,-1.53
2023-01-19T18:46:02.187Z,-1.54
2023-01-19T18:48:30.380Z,-1.54
2023-01-19T18:51:03.255Z,-1.53
2023-01-19T18:53:32.075Z,-1.52
2023-01-19T18:56:01.905Z,-1.48
2023-01-19T18:58:31.865Z,-1.49
2023-01-19T19:01:00.307Z,-1.48
2023-01-19T19:03:29.030Z,-1.48
2023-01-19T19:05:57.275Z,-1.50
2023-01-19T19:08:25.792Z,-1.52
2023-01-19T19:10:53.889Z,-1.52
2023-01-19T19:13:22.072Z,-1.50
2023-01-19T19:15:52.644Z,-1.46
2023-01-19T19:18:20.942Z,-1.47
2023-01-19T19:20:49.469Z,-1.47
2023-01-19T19:23:17.652Z,-1.44
2023-01-19T19:25:45.924Z,-1.44
2023-01-19T19:28:14.111Z,-1.46
2023-01-19T19:30:42.394Z,-1.47
2023-01-19T19:33:12.267Z,-1.44
2023-01-19T19:35:40.461Z,-1.38
2023-01-19T19:38:08.600Z,-1.36
2023-01-19T19:40:36.702Z,-1.32
2023-01-19T19:43:04.808Z,-1.35
2023-01-19T19:45:32.963Z,-1.38
2023-01-19T19:48:01.408Z,-1.36
2023-01-19T19:50:30.908Z,-1.37
2023-01-19T19:52:59.136Z,-1.39
2023-01-19T19:55:27.398Z,-1.36
2023-01-19T19:57:55.960Z,-1.37
2023-01-19T20:00:24.218Z,-1.36
2023-01-19T20:02:52.398Z,-1.40
2023-01-19T20:05:20.502Z,-1.38
2023-01-19T20:07:50.157Z,-1.39
2023-01-19T20:10:18.695Z,-1.38
2023-01-19T20:12:46.808Z,-1.40
2023-01-19T20:15:15.093Z,-1.37
2023-01-19T20:17:43.236Z,-1.39
2023-01-19T20:20:13.186Z,-1.39
2023-01-19T20:22:41.462Z,-1.41
2023-01-19T20:25:11.368Z,-1.43
2023-01-19T20:27:39.457Z,-1.42
2023-01-19T20:30:14.432Z,-1.42
2023-01-19T20:32:43.402Z,-1.42
2023-01-19T20:35:12.993Z,-1.43
2023-01-19T20:37:41.428Z,-1.43
2023-01-19T20:40:11.429Z,-1.44
2023-01-19T20:42:41.385Z,-1.46
2023-01-19T20:45:09.911Z,-1.45
2023-01-19T20:47:38.224Z,-1.42
2023-01-19T20:50:07.438Z,-1.42
2023-01-19T20:52:35.847Z,-1.39
2023-01-19T20:55:04.474Z,-1.36
2023-01-19T20:57:34.029Z,-1.35
2023-01-19T21:00:02.188Z,-1.35
2023-01-19T21:02:30.536Z,-1.33
2023-01-19T21:04:58.674Z,-1.30
2023-01-19T21:07:26.948Z,-1.30
2023-01-19T21:09:55.466Z,-1.31
2023-01-19T21:12:23.678Z,-1.30
2023-01-19T21:14:53.298Z,-1.31
2023-01-19T21:17:21.466Z,-1.28
2023-01-19T21:19:49.754Z,-1.25
2023-01-19T21:22:18.013Z,-1.25
2023-01-19T21:24:47.531Z,-1.24
2023-01-19T21:27:15.768Z,-1.22
2023-01-19T21:29:44.160Z,-1.27
2023-01-19T21:32:21.378Z,-1.28
2023-01-19T21:34:49.546Z,-1.25
2023-01-19T21:37:17.974Z,-1.24
2023-01-19T21:39:46.604Z,-1.28
2023-01-19T21:42:14.770Z,-1.27
2023-01-19T21:44:42.940Z,-1.27
2023-01-19T21:47:11.967Z,-1.27
2023-01-19T21:49:41.889Z,-1.24
2023-01-19T21:52:10.063Z,-1.24
2023-01-19T21:54:38.244Z,-1.27
2023-01-19T21:57:06.406Z,-1.24
2023-01-19T21:59:34.589Z,-1.26
2023-01-19T22:02:02.940Z,-1.21
2023-01-19T22:04:31.543Z,-1.21
2023-01-19T22:07:01.189Z,-1.20
2023-01-19T22:09:29.297Z,-1.19
2023-01-19T22:11:57.437Z,-1.23
2023-01-19T22:14:25.611Z,-1.22
2023-01-19T22:16:54.228Z,-1.21
2023-01-19T22:19:22.855Z,-1.20
2023-01-19T22:21:50.967Z,-1.20
2023-01-19T22:24:20.535Z,-1.20
2023-01-19T22:26:48.702Z,-1.20
2023-01-19T22:29:16.875Z,-1.20
2023-01-19T22:31:45.899Z,-1.18
2023-01-19T22:34:15.872Z,-1.15
2023-01-19T22:36:44.140Z,-1.16
2023-01-19T22:39:12.966Z,-1.17
2023-01-19T22:41:43.279Z,-1.17
2023-01-19T22:44:12.598Z,-1.15
2023-01-19T22:46:41.045Z,-1.14
2023-01-19T22:49:09.338Z,-1.12
2023-01-19T22:51:37.617Z,-1.07
2023-01-19T22:54:05.916Z,-1.08
2023-01-19T22:56:50.533Z,-1.07
2023-01-19T22:59:18.959Z,-1.07
2023-01-19T23:01:47.318Z,-1.05
2023-01-19T23:04:16.139Z,-1.04
2023-01-19T23:06:46.969Z,-1.04
2023-01-19T23:09:15.442Z,-1.03
2023-01-19T23:11:45.073Z,-1.05
2023-01-19T23:14:15.773Z,-1.07
2023-01-19T23:16:43.871Z,-1.05
2023-01-19T23:19:12.685Z,-1.03
2023-01-19T23:21:41.069Z,-1.01
2023-01-19T23:24:09.261Z,-0.99
2023-01-19T23:26:38.541Z,-0.99
2023-01-19T23:29:07.648Z,-1.01
2023-01-19T23:31:38.888Z,-1.01
2023-01-19T23:34:07.715Z,-0.99
2023-01-19T23:36:36.683Z,-0.99
2023-01-19T23:39:06.413Z,-0.98
2023-01-19T23:41:34.925Z,-1.00
2023-01-19T23:44:03.168Z,-1.00
2023-01-19T23:46:31.341Z,-1.04
2023-01-19T23:49:00.848Z,-1.05
2023-01-19T23:51:29.935Z,-1.05
2023-01-19T23:53:58.023Z,-1.02
2023-01-19T23:56:26.972Z,-1.01
2023-01-19T23:58:55.709Z,-1.02
